createdAt,value
2022-12-24T00:02:16.269Z,100572.50
2022-12-24T00:04:42.696Z,100564.41
2022-12-24T00:07:09.092Z,100575.78
2022-12-24T00:09:40.694Z,100577.41
2022-12-24T00:12:15.421Z,100576.84
2022-12-24T00:14:42.863Z,100576.59
2022-12-24T00:17:09.257Z,100584.97
2022-12-24T00:19:35.786Z,100580.63
2022-12-24T00:22:07.310Z,100589.84
2022-12-24T00:24:33.688Z,100595.00
2022-12-24T00:27:00.338Z,100591.47
2022-12-24T00:29:40.770Z,100603.91
2022-12-24T00:32:12.297Z,100590.66
2022-12-24T00:34:53.167Z,100592.00
2022-12-24T00:37:19.633Z,100602.81
2022-12-24T00:39:46.255Z,100610.69
2022-12-24T00:42:12.652Z,100620.66
2022-12-24T00:44:39.033Z,100619.88
2022-12-24T00:47:11.986Z,100626.38
2022-12-24T00:49:49.840Z,100624.97
2022-12-24T00:52:21.344Z,100635.81
2022-12-24T00:54:52.226Z,100644.19
2022-12-24T00:57:18.654Z,100647.16
2022-12-24T00:59:47.072Z,100645.53
2022-12-24T01:02:15.726Z,100650.94
2022-12-24T01:05:06.096Z,100655.28
2022-12-24T01:07:45.096Z,100657.97
2022-12-24T01:10:17.679Z,100670.72
2022-12-24T01:12:45.310Z,100685.03
2022-12-24T01:15:28.577Z,100683.41
2022-12-24T01:18:12.361Z,100695.59
2022-12-24T01:20:40.824Z,100700.69
2022-12-24T01:23:17.445Z,100705.03
2022-12-24T01:25:43.829Z,100702.84
2022-12-24T01:28:10.250Z,100711.16
2022-12-24T01:30:41.480Z,100715.78
2022-12-24T01:33:13.690Z,100712.53
2022-12-24T01:35:47.575Z,100711.97
2022-12-24T01:38:18.096Z,100715.75
2022-12-24T01:41:13.113Z,100720.28
2022-12-24T01:43:39.508Z,100723.53
2022-12-24T01:46:38.070Z,100715.13
2022-12-24T01:49:06.675Z,100723.75
2022-12-24T01:51:42.569Z,100723.97
2022-12-24T01:54:46.570Z,100728.00
2022-12-24T01:57:46.849Z,100730.91
2022-12-24T02:00:16.929Z,100737.91
2022-12-24T02:02:48.135Z,100738.94
2022-12-24T02:05:28.586Z,100747.81
2022-12-24T02:07:55.118Z,100748.31
2022-12-24T02:10:21.514Z,100755.88
2022-12-24T02:12:49.098Z,100757.44
2022-12-24T02:15:45.830Z,100759.03
2022-12-24T02:18:45.085Z,100772.50
2022-12-24T02:22:02.735Z,100771.69
2022-12-24T02:24:53.424Z,100775.13
2022-12-24T02:27:37.232Z,100787.53
2022-12-24T02:30:42.574Z,100791.84
2022-12-24T02:33:34.101Z,100782.06
2022-12-24T02:36:24.285Z,100785.84
2022-12-24T02:39:08.965Z,100782.56
2022-12-24T02:42:01.001Z,100790.66
2022-12-24T02:44:30.314Z,100784.72
2022-12-24T02:46:59.316Z,100786.03
2022-12-24T02:49:25.770Z,100783.63
2022-12-24T02:51:52.223Z,100784.69
2022-12-24T02:54:34.758Z,100790.88
2022-12-24T02:57:08.062Z,100798.69
2022-12-24T03:00:12.791Z,100805.97
2022-12-24T03:02:51.381Z,100806.72
2022-12-24T03:05:39.810Z,100809.66
2022-12-24T03:08:21.983Z,100821.81
2022-12-24T03:10:56.748Z,100814.78
2022-12-24T03:13:24.922Z,100820.66
2022-12-24T03:16:12.598Z,100819.03
2022-12-24T03:18:52.367Z,100813.06
2022-12-24T03:21:37.895Z,100810.38
2022-12-24T03:24:05.762Z,100809.31
2022-12-24T03:26:33.626Z,100816.34
2022-12-24T03:29:05.489Z,100816.34
2022-12-24T03:31:50.402Z,100834.97
2022-12-24T03:34:18.103Z,100826.00
2022-12-24T03:36:57.817Z,100831.72
2022-12-24T03:39:24.763Z,100836.25
2022-12-24T03:41:51.259Z,100829.78
2022-12-24T03:44:21.788Z,100830.56
2022-12-24T03:46:48.194Z,100831.97
2022-12-24T03:49:21.889Z,100836.31
2022-12-24T03:51:48.243Z,100837.66
2022-12-24T03:54:25.749Z,100834.22
2022-12-24T03:56:52.112Z,100839.13
2022-12-24T03:59:18.614Z,100845.09
2022-12-24T04:01:45.097Z,100847.59
2022-12-24T04:04:11.534Z,100837.66
2022-12-24T04:06:48.133Z,100841.75
2022-12-24T04:09:22.244Z,100846.38
2022-12-24T04:11:48.598Z,100852.91
2022-12-24T04:14:14.971Z,100843.22
2022-12-24T04:16:41.377Z,100845.44
2022-12-24T04:19:08.804Z,100851.41
2022-12-24T04:21:41.257Z,100841.16
2022-12-24T04:24:07.726Z,100842.78
2022-12-24T04:26:36.217Z,100861.75
2022-12-24T04:29:04.678Z,100859.63
2022-12-24T04:31:33.189Z,100866.66
2022-12-24T04:33:59.551Z,100862.66
2022-12-24T04:36:25.887Z,100852.97
2022-12-24T04:38:52.435Z,100862.94
2022-12-24T04:41:25.055Z,100875.38
2022-12-24T04:43:54.871Z,100877.00
2022-12-24T04:46:24.423Z,100877.56
2022-12-24T04:48:53.440Z,100871.59
2022-12-24T04:51:20.573Z,100871.38
2022-12-24T04:53:47.155Z,100865.69
2022-12-24T04:56:17.815Z,100856.50
2022-12-24T04:58:44.711Z,100867.31
2022-12-24T05:01:18.488Z,100875.19
2022-12-24T05:03:45.278Z,100883.03
2022-12-24T05:06:26.231Z,100876.84
2022-12-24T05:08:57.504Z,100876.56
2022-12-24T05:11:24.131Z,100880.09
2022-12-24T05:13:51.631Z,100885.50
2022-12-24T05:16:19.540Z,100873.38
2022-12-24T05:18:47.238Z,100870.41
2022-12-24T05:21:17.257Z,100872.03
2022-12-24T05:24:02.873Z,100872.88
2022-12-24T05:26:45.069Z,100878.28
2022-12-24T05:29:14.393Z,100889.09
2022-12-24T05:31:45.849Z,100883.91
2022-12-24T05:34:14.140Z,100883.69
2022-12-24T05:36:56.767Z,100894.00
2022-12-24T05:39:23.121Z,100892.34
2022-12-24T05:41:50.639Z,100897.50
2022-12-24T05:44:18.180Z,100901.81
2022-12-24T05:46:50.751Z,100896.41
2022-12-24T05:49:17.215Z,100892.66
2022-12-24T05:51:43.723Z,100898.06
2022-12-24T05:54:11.590Z,100895.91
2022-12-24T05:56:37.961Z,100897.53
2022-12-24T05:59:04.326Z,100900.00
2022-12-24T06:01:30.790Z,100892.47
2022-12-24T06:03:57.679Z,100909.25
2022-12-24T06:06:26.754Z,100908.16
2022-12-24T06:08:55.613Z,100911.44
2022-12-24T06:11:27.934Z,100907.66
2022-12-24T06:14:00.370Z,100903.06
2022-12-24T06:16:26.936Z,100910.09
2022-12-24T06:18:53.765Z,100921.97
2022-12-24T06:21:20.683Z,100914.38
2022-12-24T06:23:47.596Z,100924.41
2022-12-24T06:26:17.708Z,100929.81
2022-12-24T06:28:45.127Z,100926.03
2022-12-24T06:31:20.649Z,100928.47
2022-12-24T06:33:49.820Z,100931.50
2022-12-24T06:36:28.453Z,100934.19
2022-12-24T06:38:55.920Z,100939.59
2022-12-24T06:41:31.497Z,100930.41
2022-12-24T06:44:09.184Z,100929.59
2022-12-24T06:46:35.724Z,100935.81
2022-12-24T06:49:05.569Z,100949.06
2022-12-24T06:51:32.040Z,100942.88
2022-12-24T06:53:58.488Z,100956.94
2022-12-24T06:56:24.942Z,100955.88
2022-12-24T06:58:51.389Z,100948.00
2022-12-24T07:01:31.114Z,100947.75
2022-12-24T07:03:57.614Z,100951.53
2022-12-24T07:06:31.443Z,100949.63
2022-12-24T07:08:57.896Z,100953.19
2022-12-24T07:11:27.375Z,100965.06
2022-12-24T07:14:00.074Z,100972.34
2022-12-24T07:16:34.691Z,100962.34
2022-12-24T07:19:01.193Z,100974.81
2022-12-24T07:21:27.565Z,100966.13
2022-12-24T07:24:04.661Z,100971.53
2022-12-24T07:26:31.092Z,100975.31
2022-12-24T07:29:01.558Z,100989.06
2022-12-24T07:31:28.006Z,100994.19
2022-12-24T07:33:54.527Z,101000.09
2022-12-24T07:36:22.139Z,101000.91
2022-12-24T07:38:56.822Z,101005.00
2022-12-24T07:41:24.278Z,101016.38
2022-12-24T07:43:50.661Z,101027.22
2022-12-24T07:46:44.119Z,101032.34
2022-12-24T07:49:11.190Z,101037.53
2022-12-24T07:51:55.737Z,101034.81
2022-12-24T07:54:24.265Z,101041.84
2022-12-24T07:57:04.024Z,101056.44
2022-12-24T07:59:39.135Z,101058.31
2022-12-24T08:02:05.636Z,101071.03
2022-12-24T08:04:57.689Z,101074.31
2022-12-24T08:07:24.054Z,101078.66
2022-12-24T08:09:50.410Z,101079.22
2022-12-24T08:12:16.786Z,101083.00
2022-12-24T08:14:49.196Z,101084.63
2022-12-24T08:17:15.545Z,101091.09
2022-12-24T08:19:41.938Z,101090.03
2022-12-24T08:22:13.586Z,101100.03
2022-12-24T08:24:40.221Z,101098.16
2022-12-24T08:27:06.677Z,101103.28
2022-12-24T08:29:49.711Z,101102.22
2022-12-24T08:32:22.968Z,101100.34
2022-12-24T08:34:49.340Z,101109.53
2022-12-24T08:37:19.809Z,101099.28
2022-12-24T08:39:48.287Z,101106.91
2022-12-24T08:42:30.850Z,101110.97
2022-12-24T08:44:57.284Z,101113.66
2022-12-24T08:47:25.734Z,101116.72
2022-12-24T08:50:21.281Z,101130.81
2022-12-24T08:52:47.695Z,101131.88
2022-12-24T08:55:21.250Z,101131.88
2022-12-24T08:57:47.646Z,101132.44
2022-12-24T09:00:16.467Z,101143.78
2022-12-24T09:02:43.002Z,101137.31
2022-12-24T09:05:09.681Z,101154.69
2022-12-24T09:07:36.366Z,101147.13
2022-12-24T09:10:03.365Z,101154.19
2022-12-24T09:12:31.890Z,101151.25
2022-12-24T09:15:03.507Z,101169.09
2022-12-24T09:17:49.815Z,101168.03
2022-12-24T09:20:16.263Z,101171.53
2022-12-24T09:22:42.621Z,101174.00
2022-12-24T09:25:10.657Z,101172.13
2022-12-24T09:27:38.040Z,101168.34
2022-12-24T09:30:06.504Z,101194.31
2022-12-24T09:32:51.775Z,101188.41
2022-12-24T09:35:18.140Z,101193.31
2022-12-24T09:37:44.637Z,101192.25
2022-12-24T09:40:27.197Z,101204.22
2022-12-24T09:42:54.657Z,101201.50
2022-12-24T09:45:23.953Z,101215.59
2022-12-24T09:47:56.951Z,101221.34
2022-12-24T09:50:54.401Z,101227.56
2022-12-24T09:53:25.106Z,101216.75
2022-12-24T09:55:56.280Z,101222.16
2022-12-24T09:58:29.630Z,101218.06
2022-12-24T10:01:04.375Z,101218.88
2022-12-24T10:03:31.706Z,101210.81
2022-12-24T10:06:37.396Z,101219.84
2022-12-24T10:09:24.418Z,101219.00
2022-12-24T10:12:01.445Z,101225.75
2022-12-24T10:15:00.523Z,101222.47
2022-12-24T10:17:35.690Z,101222.16
2022-12-24T10:20:20.410Z,101229.53
2022-12-24T10:23:41.570Z,101231.47
2022-12-24T10:26:30.213Z,101226.63
2022-12-24T10:29:00.727Z,101225.06
2022-12-24T10:31:31.113Z,101228.38
2022-12-24T10:34:23.982Z,101219.75
2022-12-24T10:36:50.841Z,101227.66
2022-12-24T10:39:21.025Z,101228.06
2022-12-24T10:41:53.747Z,101225.69
2022-12-24T10:44:24.107Z,101230.34
2022-12-24T10:46:50.471Z,101233.75
2022-12-24T10:49:25.614Z,101238.16
2022-12-24T10:52:14.012Z,101238.41
2022-12-24T10:55:11.001Z,101235.09
2022-12-24T10:58:02.538Z,101226.69
2022-12-24T11:00:38.377Z,101241.88
2022-12-24T11:03:22.445Z,101253.72
2022-12-24T11:06:02.499Z,101254.22
2022-12-24T11:08:31.973Z,101240.13
2022-12-24T11:11:01.327Z,101252.03
2022-12-24T11:13:39.104Z,101244.97
2022-12-24T11:16:17.926Z,101250.63
2022-12-24T11:18:51.817Z,101248.19
2022-12-24T11:21:31.261Z,101242.22
2022-12-24T11:24:00.692Z,101240.81
2022-12-24T11:26:29.920Z,101251.81
2022-12-24T11:29:03.987Z,101240.22
2022-12-24T11:31:32.907Z,101241.25
2022-12-24T11:33:59.410Z,101251.53
2022-12-24T11:36:27.588Z,101253.09
2022-12-24T11:38:57.658Z,101256.31
2022-12-24T11:41:25.770Z,101256.00
2022-12-24T11:44:01.322Z,101253.78
2022-12-24T11:46:38.680Z,101251.34
2022-12-24T11:49:15.272Z,101264.34
2022-12-24T11:52:13.043Z,101260.22
2022-12-24T11:55:03.731Z,101261.06
2022-12-24T11:57:43.795Z,101271.34
2022-12-24T12:00:11.686Z,101265.66
2022-12-24T12:02:42.092Z,101264.84
2022-12-24T12:05:23.844Z,101268.13
2022-12-24T12:08:18.221Z,101278.44
2022-12-24T12:11:09.765Z,101278.25
2022-12-24T12:13:48.089Z,101283.47
2022-12-24T12:16:29.545Z,101280.19
2022-12-24T12:19:03.441Z,101291.53
2022-12-24T12:21:41.204Z,101289.06
2022-12-24T12:24:31.571Z,101293.13
2022-12-24T12:27:10.956Z,101297.13
2022-12-24T12:30:02.294Z,101300.13
2022-12-24T12:32:41.886Z,101302.25
2022-12-24T12:35:33.690Z,101306.84
2022-12-24T12:38:13.063Z,101306.03
2022-12-24T12:41:01.791Z,101305.47
2022-12-24T12:44:02.554Z,101305.13
2022-12-24T12:46:38.109Z,101305.13
2022-12-24T12:49:13.626Z,101315.75
2022-12-24T12:52:10.157Z,101314.41
2022-12-24T12:54:55.545Z,101306.59
2022-12-24T12:57:26.469Z,101320.72
2022-12-24T13:00:03.455Z,101327.28
2022-12-24T13:03:07.372Z,101320.28
2022-12-24T13:05:50.545Z,101324.69
2022-12-24T13:08:44.977Z,101323.28
2022-12-24T13:11:34.174Z,101321.06
2022-12-24T13:14:21.100Z,101336.53
2022-12-24T13:17:32.356Z,101338.91
2022-12-24T13:20:19.026Z,101326.69
2022-12-24T13:23:18.661Z,101322.91
2022-12-24T13:25:51.963Z,101330.53
2022-12-24T13:28:24.129Z,101331.09
2022-12-24T13:31:25.441Z,101336.53
2022-12-24T13:33:56.938Z,101345.72
2022-12-24T13:36:23.870Z,101354.41
2022-12-24T13:38:57.078Z,101350.31
2022-12-24T13:41:50.170Z,101360.91
2022-12-24T13:44:33.141Z,101372.06
2022-12-24T13:47:32.645Z,101376.41
2022-12-24T13:50:14.320Z,101377.22
2022-12-24T13:52:52.304Z,101375.59
2022-12-24T13:55:30.560Z,101372.31
2022-12-24T13:58:05.520Z,101370.09
2022-12-24T14:00:58.594Z,101378.75
2022-12-24T14:03:31.026Z,101375.47
2022-12-24T14:06:01.693Z,101381.13
2022-12-24T14:08:43.540Z,101383.25
2022-12-24T14:11:13.577Z,101393.84
2022-12-24T14:13:39.945Z,101391.72
2022-12-24T14:16:14.835Z,101395.50
2022-12-24T14:18:50.629Z,101402.56
2022-12-24T14:21:26.759Z,101405.00
2022-12-24T14:24:12.343Z,101399.56
2022-12-24T14:26:48.997Z,101402.06
2022-12-24T14:29:30.706Z,101399.56
2022-12-24T14:32:04.224Z,101395.50
2022-12-24T14:34:40.078Z,101403.34
2022-12-24T14:37:06.481Z,101403.34
2022-12-24T14:39:37.541Z,101403.06
2022-12-24T14:42:28.842Z,101401.41
2022-12-24T14:45:23.442Z,101414.69
2022-12-24T14:48:37.888Z,101407.63
2022-12-24T14:51:17.186Z,101417.41
2022-12-24T14:53:49.282Z,101416.03
2022-12-24T14:56:22.628Z,101417.31
2022-12-24T14:58:49.825Z,101428.91
2022-12-24T15:01:31.691Z,101432.13
2022-12-24T15:04:10.082Z,101429.34
2022-12-24T15:06:39.881Z,101429.00
2022-12-24T15:09:22.381Z,101444.44
2022-12-24T15:11:54.681Z,101441.66
2022-12-24T15:14:24.102Z,101445.94
2022-12-24T15:16:58.793Z,101455.03
2022-12-24T15:19:32.025Z,101454.94
2022-12-24T15:21:58.683Z,101454.06
2022-12-24T15:24:35.053Z,101456.44
2022-12-24T15:27:11.860Z,101459.63
2022-12-24T15:29:42.786Z,101466.09
2022-12-24T15:32:18.349Z,101468.72
2022-12-24T15:34:47.457Z,101468.06
2022-12-24T15:37:21.286Z,101469.03
2022-12-24T15:40:02.226Z,101471.16
2022-12-24T15:42:28.829Z,101468.97
2022-12-24T15:45:00.552Z,101473.69
2022-12-24T15:47:38.110Z,101474.78
2022-12-24T15:50:18.606Z,101478.66
2022-12-24T15:52:46.578Z,101482.09
2022-12-24T15:55:26.417Z,101482.59
2022-12-24T15:57:53.384Z,101492.25
2022-12-24T16:00:24.910Z,101482.50
2022-12-24T16:02:51.793Z,101491.56
2022-12-24T16:05:32.031Z,101490.97
2022-12-24T16:08:07.617Z,101493.34
2022-12-24T16:10:40.060Z,101497.09
2022-12-24T16:13:20.264Z,101488.66
2022-12-24T16:15:54.773Z,101488.31
2022-12-24T16:18:25.744Z,101491.47
2022-12-24T16:20:53.963Z,101487.34
2022-12-24T16:23:44.835Z,101492.75
2022-12-24T16:26:21.959Z,101486.19
2022-12-24T16:29:30.049Z,101488.47
2022-12-24T16:32:46.248Z,101491.75
2022-12-24T16:35:36.523Z,101488.34
2022-12-24T16:38:16.361Z,101489.75
2022-12-24T16:40:43.220Z,101500.72
2022-12-24T16:43:29.433Z,101502.47
2022-12-24T16:46:02.294Z,101502.38
2022-12-24T16:48:37.579Z,101513.03
2022-12-24T16:51:30.472Z,101517.28
2022-12-24T16:54:04.007Z,101515.50
2022-12-24T16:56:33.502Z,101506.22
2022-12-24T16:59:28.280Z,101501.38
2022-12-24T17:01:58.745Z,101509.34
2022-12-24T17:05:06.870Z,101508.56
2022-12-24T17:07:43.573Z,101505.72
2022-12-24T17:10:59.017Z,101505.47
2022-12-24T17:13:25.423Z,101509.47
2022-12-24T17:15:53.922Z,101507.25
2022-12-24T17:18:27.289Z,101522.84
2022-12-24T17:21:01.140Z,101509.81
2022-12-24T17:24:03.172Z,101511.31
2022-12-24T17:26:29.580Z,101514.72
2022-12-24T17:28:59.079Z,101521.41
2022-12-24T17:31:25.531Z,101512.13
2022-12-24T17:33:52.911Z,101515.28
2022-12-24T17:36:45.932Z,101510.78
2022-12-24T17:39:12.289Z,101509.59
2022-12-24T17:41:47.284Z,101504.06
2022-12-24T17:44:18.681Z,101498.69
2022-12-24T17:47:29.719Z,101496.91
2022-12-24T17:50:00.264Z,101499.47
2022-12-24T17:52:26.641Z,101501.22
2022-12-24T17:54:54.815Z,101499.34
2022-12-24T17:57:25.369Z,101501.22
2022-12-24T17:59:51.833Z,101499.22
2022-12-24T18:02:30.130Z,101497.31
2022-12-24T18:05:04.467Z,101494.03
2022-12-24T18:07:37.813Z,101503.41
2022-12-24T18:10:04.803Z,101505.50
2022-12-24T18:12:31.195Z,101515.69
2022-12-24T18:14:57.643Z,101515.31
2022-12-24T18:17:24.002Z,101515.56
2022-12-24T18:19:50.340Z,101514.38
2022-12-24T18:22:16.726Z,101512.13
2022-12-24T18:24:43.173Z,101516.91
2022-12-24T18:27:09.521Z,101514.88
2022-12-24T18:29:39.803Z,101520.50
2022-12-24T18:32:06.198Z,101515.72
2022-12-24T18:34:32.585Z,101517.81
2022-12-24T18:36:59.158Z,101516.97
2022-12-24T18:39:25.712Z,101513.69
2022-12-24T18:41:52.125Z,101521.56
2022-12-24T18:44:24.636Z,101528.59
2022-12-24T18:46:51.897Z,101524.25
2022-12-24T18:49:18.347Z,101518.25
2022-12-24T18:51:46.796Z,101518.25
2022-12-24T18:54:13.318Z,101524.09
2022-12-24T18:56:39.718Z,101525.75
2022-12-24T18:59:06.073Z,101526.56
2022-12-24T19:01:34.433Z,101526.19
2022-12-24T19:04:01.318Z,101527.25
2022-12-24T19:06:30.859Z,101520.81
2022-12-24T19:09:00.306Z,101525.75
2022-12-24T19:11:30.075Z,101522.00
2022-12-24T19:13:58.116Z,101516.63
2022-12-24T19:16:27.596Z,101515.56
2022-12-24T19:18:54.189Z,101509.34
2022-12-24T19:21:21.127Z,101505.38
2022-12-24T19:23:48.223Z,101507.03
2022-12-24T19:26:16.313Z,101505.97
2022-12-24T19:28:43.224Z,101508.09
2022-12-24T19:31:13.263Z,101509.13
2022-12-24T19:33:43.160Z,101518.88
2022-12-24T19:36:13.219Z,101522.81
2022-12-24T19:38:40.305Z,101516.63
2022-12-24T19:41:07.454Z,101518.25
2022-12-24T19:43:36.935Z,101514.53
2022-12-24T19:46:05.451Z,101522.59
2022-12-24T19:48:31.999Z,101524.47
2022-12-24T19:51:06.411Z,101518.72
2022-12-24T19:53:35.840Z,101518.72
2022-12-24T19:56:03.063Z,101520.81
2022-12-24T19:58:29.669Z,101524.09
2022-12-24T20:00:56.071Z,101530.31
2022-12-24T20:03:22.636Z,101526.78
2022-12-24T20:05:49.176Z,101526.56
2022-12-24T20:08:15.596Z,101526.78
2022-12-24T20:10:43.571Z,101530.09
2022-12-24T20:13:10.642Z,101529.63
2022-12-24T20:15:45.781Z,101526.25
2022-12-24T20:18:15.563Z,101532.03
2022-12-24T20:21:01.488Z,101543.78
2022-12-24T20:23:28.319Z,101537.94
2022-12-24T20:26:02.332Z,101543.25
2022-12-24T20:28:31.339Z,101531.56
2022-12-24T20:30:57.735Z,101530.66
2022-12-24T20:33:24.507Z,101538.41
2022-12-24T20:35:53.101Z,101537.94
2022-12-24T20:38:19.459Z,101537.50
2022-12-24T20:40:48.969Z,101527.91
2022-12-24T20:43:21.001Z,101528.03
2022-12-24T20:45:51.734Z,101531.91
2022-12-24T20:48:18.875Z,101534.41
2022-12-24T20:50:45.595Z,101526.66
2022-12-24T20:53:12.152Z,101519.75
2022-12-24T20:55:38.606Z,101512.25
2022-12-24T20:58:05.154Z,101502.50
2022-12-24T21:00:31.823Z,101506.84
2022-12-24T21:02:58.595Z,101501.69
2022-12-24T21:05:25.552Z,101507.69
2022-12-24T21:07:51.922Z,101511.19
2022-12-24T21:10:18.295Z,101507.44
2022-12-24T21:12:52.273Z,101497.25
2022-12-24T21:15:24.558Z,101502.66
2022-12-24T21:17:51.769Z,101512.97
2022-12-24T21:20:18.667Z,101499.72
2022-12-24T21:22:45.061Z,101496.78
2022-12-24T21:25:12.204Z,101502.19
2022-12-24T21:27:38.700Z,101497.63
2022-12-24T21:30:08.166Z,101483.06
2022-12-24T21:32:37.919Z,101483.53
2022-12-24T21:35:04.826Z,101482.69
2022-12-24T21:37:31.201Z,101484.81
2022-12-24T21:39:57.570Z,101486.91
2022-12-24T21:42:23.982Z,101492.56
2022-12-24T21:44:50.356Z,101480.72
2022-12-24T21:47:16.721Z,101488.56
2022-12-24T21:50:01.903Z,101493.59
2022-12-24T21:52:28.319Z,101488.22
2022-12-24T21:54:54.687Z,101487.38
2022-12-24T21:57:39.434Z,101484.09
2022-12-24T22:00:21.715Z,101487.84
2022-12-24T22:02:50.281Z,101478.69
2022-12-24T22:05:16.813Z,101472.50
2022-12-24T22:08:01.970Z,101474.59
2022-12-24T22:10:46.738Z,101481.25
2022-12-24T22:13:13.221Z,101491.25
2022-12-24T22:15:45.270Z,101483.16
2022-12-24T22:18:12.150Z,101490.88
2022-12-24T22:20:39.920Z,101496.72
2022-12-24T22:23:06.535Z,101484.53
2022-12-24T22:25:33.397Z,101469.41
2022-12-24T22:27:59.969Z,101467.28
2022-12-24T22:30:26.867Z,101470.00
2022-12-24T22:32:53.263Z,101462.69
2022-12-24T22:35:19.629Z,101470.00
2022-12-24T22:37:46.298Z,101478.88
2022-12-24T22:40:12.935Z,101481.00
2022-12-24T22:42:40.832Z,101482.03
2022-12-24T22:45:08.153Z,101487.44
2022-12-24T22:47:34.539Z,101485.19
2022-12-24T22:50:00.941Z,101491.88
2022-12-24T22:52:32.032Z,101485.66
2022-12-24T22:54:58.387Z,101486.50
2022-12-24T22:57:24.756Z,101498.09
2022-12-24T22:59:51.098Z,101506.19
2022-12-24T23:02:22.071Z,101502.69
2022-12-24T23:04:52.217Z,101515.13
2022-12-24T23:07:19.620Z,101509.94
2022-12-24T23:09:45.993Z,101510.53
2022-12-24T23:12:12.344Z,101516.50
2022-12-24T23:14:56.725Z,101511.38
2022-12-24T23:17:23.063Z,101511.38
2022-12-24T23:19:49.437Z,101511.13
2022-12-24T23:22:15.777Z,101513.00
2022-12-24T23:24:42.217Z,101514.28
2022-12-24T23:27:08.633Z,101514.88
2022-12-24T23:29:35.000Z,101504.31
2022-12-24T23:32:01.383Z,101510.78
2022-12-24T23:34:27.822Z,101509.72
2022-12-24T23:36:54.247Z,101514.88
2022-12-24T23:39:20.685Z,101522.97
2022-12-24T23:41:47.033Z,101526.25
2022-12-24T23:44:13.386Z,101527.91
2022-12-24T23:46:39.792Z,101513.34
2022-12-24T23:49:06.196Z,101510.19
2022-12-24T23:51:32.573Z,101502.50
2022-12-24T23:53:58.978Z,101490.41
2022-12-24T23:56:25.732Z,101484.53
2022-12-24T23:58:52.288Z,101479.16
